This is the latest recevied weather packets stored in our database for station/object K5KVN. If no packets are shown the sender has not sent any weather packets the latest 10 day(s).
| Time | Temp. | Humidity | Pressure | Rain* | Wind** | Luminosity | Snow |
|---|---|---|---|---|---|---|---|
| 1778291631 | 16.11° C | 84% | 1009.2 hPa | 2.29 mm | - | - | - |
| 1778291029 | 16.11° C | 88% | 1009.8 hPa | 2.03 mm | - | - | - |
| 1778290430 | 16.67° C | 85% | 1010.9 hPa | 2.03 mm | - | - | - |
| 1778289830 | 17.22° C | 83% | 1011.6 hPa | 1.27 mm | - | - | - |
| 1778289230 | 18.33° C | 79% | 1011.4 hPa | 0.76 mm | - | - | - |
| 1778288630 | 19.44° C | 75% | 1011.1 hPa | 0 mm | - | - | - |
| 1778288029 | 19.44° C | 75% | 1010.7 hPa | 0 mm | - | - | - |
| 1778287429 | 20.56° C | 72% | 1010.7 hPa | 0 mm | - | - | - |
| 1778286828 | 21.11° C | 67% | 1011.2 hPa | 0 mm | - | - | - |
| 1778286230 | 21.11° C | 70% | 1010.6 hPa | 0 mm | - | - | - |
| 1778285627 | 21.11° C | 68% | 1010.2 hPa | 0 mm | - | - | - |
| 1778285027 | 21.67° C | 67% | 1009.8 hPa | 0 mm | - | - | - |
| 1778284427 | 21.67° C | 70% | 1009.2 hPa | 0 mm | - | - | - |
| 1778283825 | 22.22° C | 66% | 1009.3 hPa | 0 mm | - | - | - |
| 1778283226 | 22.78° C | 61% | 1009.5 hPa | 0 mm | - | - | - |
| 1778282623 | 23.33° C | 57% | 1009.7 hPa | 0 mm | - | - | - |
| 1778282084 | 23.89° C | 57% | 1009.3 hPa | 0 mm | - | - | - |
| 1778281425 | 23.89° C | 58% | 1009.5 hPa | 0 mm | - | - | - |
| 1778280824 | 23.33° C | 58% | 1009.2 hPa | 0 mm | - | - | - |
| 1778280222 | 23.89° C | 56% | 1009.1 hPa | 0 mm | - | - | - |
| 1778279621 | 23.89° C | 56% | 1009.1 hPa | 0 mm | - | - | - |
| 1778279023 | 23.89° C | 58% | 1009.1 hPa | 0 mm | - | - | - |
| 1778278419 | 24.44° C | 54% | 1009.3 hPa | 0 mm | - | - | - |
| 1778277819 | 25° C | 53% | 1009.2 hPa | 0 mm | - | - | - |
| 1778277223 | 25° C | 53% | 1009.2 hPa | 0 mm | - | - | - |
* Rain latest hour (hover to see other rain measurements)
** Current wind speed in m/s (hover to see current wind gust speed)